Terminal Aerodrome Forecast
Issued by NWS

Home | Current Version | Previous Version | Text Only | Print | Product List | Glossary On
Versions: 1 2 3 4 5 6 7 8 9 10 11 12 13 14 15 16 17 18 19 20 21 22 23 24 25 26 27 28 29 30 31 32 33 34 35 36 37 38 39 40 41 42
241
FTAK31 PAFA 242335
TAFAUN
TAF
PAUN 242335Z 2500/2524 20017KT 4SM -SN BKN027 OVC035
     FM250400 23016KT 5SM -SHSN SCT010 OVC020
     FM251200 18018KT 6SM -SHSN OVC025
     FM252000 16027G37KT 1/4SM SN FG BLSN OVC005=

USA.gov is the U.S. government's official web portal to all federal, state and local government web resources and services.